Time;durP1;ratioP1;P1;durP2;ratioP2;P2;SDS_P1;SDS_P2;PMS_P1;PMS_P2;Temp;Humidity;BMP_temperature;BMP_pressure;BME280_temperature;BME280_humidity;BME280_pressure;Samples;Min_cycle;Max_cycle;Signal;HPM_P1;HPM_P2
2022/06/11 00:00:00;;;;;;;;;18.67;18.67;23.40;68.60;;;;;;5089445;28;8899;-75
2022/06/11 00:02:26;;;;;;;;;19.67;19.67;23.50;68.70;;;;;;5082207;28;8781;-75
2022/06/11 00:04:52;;;;;;;;;19.33;19.33;23.80;67.20;;;;;;5089037;28;8778;-76
2022/06/11 00:07:21;;;;;;;;;18.00;18.00;23.70;66.60;;;;;;5087486;28;8828;-76
2022/06/11 00:09:48;;;;;;;;;18.00;18.00;23.70;67.70;;;;;;5081222;28;8770;-76
2022/06/11 00:12:15;;;;;;;;;20.00;20.00;23.50;67.20;;;;;;5077395;28;8742;-75
2022/06/11 00:14:42;;;;;;;;;18.33;18.33;23.60;67.50;;;;;;5077298;28;8747;-76
2022/06/11 00:17:14;;;;;;;;;17.67;17.67;23.50;67.90;;;;;;5077344;28;8822;-79
2022/06/11 00:19:41;;;;;;;;;18.00;18.00;23.40;68.10;;;;;;5076173;28;8809;-80
2022/06/11 00:22:09;;;;;;;;;18.00;18.00;23.60;67.40;;;;;;5077371;28;8785;-77
2022/06/11 00:24:36;;;;;;;;;19.67;19.33;23.60;67.30;;;;;;5077128;28;8778;-78
2022/06/11 00:27:02;;;;;;;;;9.00;9.00;23.20;69.50;;;;;;5077157;28;8757;-78
2022/06/11 00:29:31;;;;;;;;;14.00;14.00;23.00;70.00;;;;;;5077044;28;8762;-77
2022/06/11 00:31:56;;;;;;;;;17.33;17.33;23.00;70.00;;;;;;5077107;28;8896;-77
2022/06/11 00:34:23;;;;;;;;;15.00;15.00;22.80;71.00;;;;;;5059416;28;8765;-75
2022/06/11 00:36:50;;;;;;;;;19.00;19.00;22.60;71.50;;;;;;5077093;28;8820;-74
2022/06/11 00:39:18;;;;;;;;;17.00;17.00;22.50;72.20;;;;;;5076699;28;8794;-74
2022/06/11 00:41:48;;;;;;;;;18.00;18.00;22.50;72.70;;;;;;5076885;28;8778;-77
2022/06/11 00:44:15;;;;;;;;;14.67;14.67;22.60;72.20;;;;;;5076759;28;8844;-77
2022/06/11 00:46:47;;;;;;;;;21.33;21.33;22.70;71.50;;;;;;5075985;28;8797;-75
2022/06/11 00:49:39;;;;;;;;;19.33;19.33;22.80;71.40;;;;;;5076843;28;8753;-74
2022/06/11 00:52:17;;;;;;;;;23.67;23.67;22.70;71.40;;;;;;5075675;28;8773;-76
2022/06/11 00:54:47;;;;;;;;;20.67;20.67;22.00;75.30;;;;;;5076589;28;8758;-77
2022/06/11 00:57:14;;;;;;;;;19.33;19.33;22.10;75.80;;;;;;5076491;28;8746;-76
2022/06/11 00:59:49;;;;;;;;;21.00;21.00;22.20;75.20;;;;;;5076584;28;8827;-76
2022/06/11 01:02:18;;;;;;;;;18.67;18.67;21.90;76.70;;;;;;5076843;28;8758;-76
2022/06/11 01:04:50;;;;;;;;;18.33;18.33;22.00;76.10;;;;;;5077246;28;8789;-77
2022/06/11 01:07:40;;;;;;;;;20.00;20.00;22.20;75.60;;;;;;5075761;28;8793;-77
2022/06/11 01:10:09;;;;;;;;;16.67;16.67;22.00;75.30;;;;;;5076781;28;8782;-76
2022/06/11 01:12:46;;;;;;;;;18.00;18.00;21.90;77.10;;;;;;5075269;28;8838;-76
2022/06/11 01:15:28;;;;;;;;;19.67;19.67;22.10;76.80;;;;;;5076743;28;8804;-75
2022/06/11 01:18:09;;;;;;;;;17.33;17.33;22.40;74.70;;;;;;5076256;28;8798;-75
2022/06/11 01:20:46;;;;;;;;;20.67;20.67;22.50;73.20;;;;;;5076079;28;8801;-75
2022/06/11 01:23:40;;;;;;;;;19.67;19.67;22.60;73.70;;;;;;5076338;28;8855;-76
2022/06/11 01:26:12;;;;;;;;;20.67;20.67;22.60;72.40;;;;;;5076057;28;8762;-78
2022/06/11 01:28:40;;;;;;;;;15.00;15.00;22.50;73.50;;;;;;5075586;28;9439;-76
2022/06/11 01:31:15;;;;;;;;;19.00;19.00;22.60;73.60;;;;;;5076058;28;8782;-76
2022/06/11 01:34:10;;;;;;;;;20.33;20.33;22.30;74.20;;;;;;5076121;28;9381;-76
2022/06/11 01:36:39;;;;;;;;;21.33;21.33;22.20;75.00;;;;;;5075897;28;8831;-77
2022/06/11 01:39:40;;;;;;;;;21.33;21.33;22.40;75.20;;;;;;5079055;28;8772;-76
2022/06/11 01:42:12;;;;;;;;;20.67;20.67;22.50;73.90;;;;;;5095028;28;8819;-76
2022/06/11 01:44:41;;;;;;;;;14.33;14.33;22.70;72.80;;;;;;5096171;28;8779;-78
2022/06/11 01:47:08;;;;;;;;;20.00;20.00;22.80;72.00;;;;;;5095784;28;8772;-76
2022/06/11 01:49:40;;;;;;;;;20.00;20.00;22.80;71.10;;;;;;5095943;28;8740;-75
2022/06/11 01:52:31;;;;;;;;;21.33;21.33;22.90;70.80;;;;;;5095802;28;8776;-75
2022/06/11 01:55:18;;;;;;;;;21.33;20.33;23.00;70.50;;;;;;5095056;28;8776;-75
2022/06/11 01:58:13;;;;;;;;;17.67;17.67;22.70;71.90;;;;;;5095603;28;8761;-76
2022/06/11 02:01:02;;;;;;;;;21.00;21.00;22.60;72.30;;;;;;5088267;28;8807;-75
2022/06/11 02:03:34;;;;;;;;;15.33;15.33;22.60;72.50;;;;;;5095503;28;9476;-76
2022/06/11 02:06:34;;;;;;;;;19.33;18.00;22.30;73.40;;;;;;5095765;28;8744;-78
2022/06/11 02:09:29;;;;;;;;;16.33;16.33;22.60;72.60;;;;;;5095723;28;9421;-74
2022/06/11 02:12:07;;;;;;;;;22.00;22.00;22.50;72.50;;;;;;5013074;28;8883;-76
2022/06/11 02:14:59;;;;;;;;;20.33;20.33;22.40;72.30;;;;;;5013323;28;8780;-75
2022/06/11 02:17:31;;;;;;;;;20.67;20.67;22.20;73.90;;;;;;5009029;28;8837;-76
2022/06/11 02:20:02;;;;;;;;;20.00;20.00;22.30;73.50;;;;;;5013193;28;9529;-77
2022/06/11 02:22:35;;;;;;;;;17.00;17.00;22.40;73.20;;;;;;4996639;28;8838;-76
2022/06/11 02:25:15;;;;;;;;;23.00;23.00;22.50;72.40;;;;;;5013248;28;8764;-76
2022/06/11 02:27:55;;;;;;;;;23.00;21.67;22.40;73.10;;;;;;5013317;28;8781;-77
2022/06/11 02:30:25;;;;;;;;;18.67;18.67;22.40;72.50;;;;;;5013546;28;8834;-75
2022/06/11 02:32:51;;;;;;;;;15.00;15.00;22.10;75.10;;;;;;5013361;28;8773;-75
2022/06/11 02:35:26;;;;;;;;;18.33;18.33;22.40;73.60;;;;;;5013259;28;8815;-79
2022/06/11 02:37:52;;;;;;;;;17.33;17.33;22.30;73.80;;;;;;5013526;28;8772;-75
2022/06/11 02:40:37;;;;;;;;;19.33;19.33;22.40;73.70;;;;;;5013266;28;8864;-76
2022/06/11 02:43:03;;;;;;;;;23.33;23.33;22.20;73.20;;;;;;4985983;28;8779;-75
2022/06/11 02:45:29;;;;;;;;;19.33;19.33;22.10;75.10;;;;;;5011374;28;8794;-77
2022/06/11 02:47:58;;;;;;;;;17.00;17.00;22.30;74.20;;;;;;5001136;28;8766;-76
2022/06/11 02:50:29;;;;;;;;;21.33;21.33;22.00;75.20;;;;;;5064045;28;8813;-77
2022/06/11 02:52:59;;;;;;;;;20.33;20.33;22.10;74.50;;;;;;5066687;28;9450;-76
2022/06/11 02:55:27;;;;;;;;;15.67;15.67;21.90;75.80;;;;;;5055013;28;8769;-76
2022/06/11 02:57:53;;;;;;;;;18.67;18.67;22.10;74.80;;;;;;5054880;28;8788;-76
2022/06/11 03:00:24;;;;;;;;;23.33;23.33;22.40;73.50;;;;;;5054926;28;8808;-77
2022/06/11 03:02:50;;;;;;;;;22.33;22.33;22.40;72.50;;;;;;5054335;28;8787;-77
2022/06/11 03:05:22;;;;;;;;;27.00;26.67;22.30;72.70;;;;;;5054688;28;8789;-77
2022/06/11 03:07:49;;;;;;;;;24.67;24.67;22.30;72.80;;;;;;5054352;28;8834;-77
2022/06/11 03:10:17;;;;;;;;;24.00;23.00;22.40;72.90;;;;;;5037208;28;8785;-76
2022/06/11 03:12:43;;;;;;;;;22.00;22.00;22.10;74.00;;;;;;5054330;28;8795;-75
2022/06/11 03:15:11;;;;;;;;;21.33;21.33;22.00;74.60;;;;;;5054055;28;8792;-76
2022/06/11 03:17:38;;;;;;;;;25.00;25.00;21.90;75.20;;;;;;5063093;28;8863;-77
2022/06/11 03:20:05;;;;;;;;;26.33;26.33;22.00;75.50;;;;;;5074361;28;8851;-77
2022/06/11 03:22:31;;;;;;;;;22.33;22.33;22.00;75.20;;;;;;5074042;28;8884;-76
2022/06/11 03:24:57;;;;;;;;;22.00;22.00;21.80;75.80;;;;;;5074170;28;8849;-75
2022/06/11 03:27:23;;;;;;;;;21.33;21.33;22.10;75.00;;;;;;5074151;28;8796;-76
2022/06/11 03:29:50;;;;;;;;;23.67;23.67;22.10;74.30;;;;;;5074092;28;8770;-75
2022/06/11 03:32:17;;;;;;;;;19.33;19.33;22.20;73.80;;;;;;5074292;28;8870;-76
2022/06/11 03:34:43;;;;;;;;;26.67;26.67;22.20;74.20;;;;;;5073945;28;8777;-76
2022/06/11 03:37:09;;;;;;;;;29.00;29.00;22.50;73.10;;;;;;5074196;28;8781;-76
2022/06/11 03:39:35;;;;;;;;;24.00;24.00;22.60;71.60;;;;;;5077731;28;8817;-76
2022/06/11 03:42:01;;;;;;;;;25.00;25.00;22.40;72.90;;;;;;5083395;28;9453;-76
2022/06/11 03:44:26;;;;;;;;;23.33;23.33;22.20;73.30;;;;;;5094140;28;8877;-76
2022/06/11 03:46:53;;;;;;;;;22.00;22.00;22.20;73.10;;;;;;5094403;28;9438;-76
2022/06/11 03:49:19;;;;;;;;;22.00;22.00;22.20;74.20;;;;;;5094226;28;8820;-77
2022/06/11 03:51:46;;;;;;;;;28.33;28.33;22.10;74.30;;;;;;5087725;28;9432;-77
2022/06/11 03:54:13;;;;;;;;;29.33;29.33;22.30;73.00;;;;;;5079577;28;8945;-76
2022/06/11 03:56:39;;;;;;;;;25.67;25.00;22.10;74.20;;;;;;5093222;28;8849;-76
2022/06/11 03:59:06;;;;;;;;;24.00;24.00;21.90;75.70;;;;;;5039543;28;8875;-76
2022/06/11 04:01:33;;;;;;;;;11.00;11.00;22.00;75.80;;;;;;5073774;28;8817;-76
2022/06/11 04:04:02;;;;;;;;;25.33;25.33;21.80;76.20;;;;;;5073511;28;8765;-76
2022/06/11 04:06:36;;;;;;;;;19.00;19.00;21.70;77.90;;;;;;5073516;28;8758;-76
2022/06/11 04:09:05;;;;;;;;;26.33;26.33;22.00;77.10;;;;;;5074500;28;8776;-76
2022/06/11 04:11:31;;;;;;;;;22.67;22.67;22.10;76.00;;;;;;5080713;28;8776;-79
2022/06/11 04:13:57;;;;;;;;;29.67;29.67;22.00;76.80;;;;;;5094064;28;8787;-76
2022/06/11 04:16:28;;;;;;;;;23.00;23.00;22.10;76.60;;;;;;5094156;28;8807;-76
2022/06/11 04:18:57;;;;;;;;;27.00;27.00;21.90;77.00;;;;;;5077389;28;8827;-76
2022/06/11 04:21:25;;;;;;;;;28.67;28.67;21.40;82.70;;;;;;5080154;28;8800;-76
2022/06/11 04:23:53;;;;;;;;;29.33;29.33;21.90;80.40;;;;;;5093244;28;8766;-76
2022/06/11 04:26:23;;;;;;;;;24.00;24.00;21.70;80.00;;;;;;5077183;28;8758;-76
2022/06/11 04:28:49;;;;;;;;;30.67;30.33;21.70;81.10;;;;;;5077429;28;8830;-77
2022/06/11 04:31:16;;;;;;;;;26.33;26.33;21.70;79.40;;;;;;5077055;28;8754;-75
2022/06/11 04:33:49;;;;;;;;;27.33;27.33;21.80;80.50;;;;;;5077690;28;9546;-76
2022/06/11 04:36:17;;;;;;;;;25.00;25.00;22.10;77.80;;;;;;5081926;28;8790;-75
2022/06/11 04:38:43;;;;;;;;;26.33;26.33;22.40;76.90;;;;;;5088162;28;8851;-77
2022/06/11 04:41:09;;;;;;;;;27.33;27.33;22.60;74.90;;;;;;5079087;28;8917;-76
2022/06/11 04:43:36;;;;;;;;;29.00;29.00;22.70;74.00;;;;;;5084142;28;8788;-76
2022/06/11 04:46:03;;;;;;;;;23.00;23.00;22.80;74.10;;;;;;5076952;28;8821;-76
2022/06/11 04:48:29;;;;;;;;;32.33;32.33;22.90;73.30;;;;;;5077033;28;8959;-76
2022/06/11 04:50:55;;;;;;;;;28.00;28.00;22.90;73.30;;;;;;5076940;28;8750;-77
2022/06/11 04:53:21;;;;;;;;;26.33;26.33;22.80;72.90;;;;;;5076598;28;8796;-76
2022/06/11 04:55:47;;;;;;;;;28.33;28.33;22.80;74.00;;;;;;5076629;28;8781;-76
2022/06/11 04:58:13;;;;;;;;;30.67;30.67;23.00;72.90;;;;;;5076785;28;8758;-76
2022/06/11 05:00:39;;;;;;;;;29.67;29.67;23.00;72.30;;;;;;5076668;28;9439;-75
2022/06/11 05:03:05;;;;;;;;;30.00;30.00;22.90;72.90;;;;;;5076488;28;8754;-77
2022/06/11 05:05:31;;;;;;;;;27.33;27.33;22.90;73.60;;;;;;5076325;28;8750;-76
2022/06/11 05:07:57;;;;;;;;;21.00;21.00;22.80;74.30;;;;;;5076348;28;8785;-76
2022/06/11 05:10:25;;;;;;;;;26.67;26.67;22.80;73.30;;;;;;5076881;28;8766;-76
2022/06/11 05:12:51;;;;;;;;;23.33;22.67;23.00;72.70;;;;;;5077783;28;8758;-77
2022/06/11 05:15:17;;;;;;;;;26.00;26.00;22.70;74.40;;;;;;5076143;28;8794;-76
2022/06/11 05:17:44;;;;;;;;;24.00;24.00;23.10;73.30;;;;;;5075905;28;8790;-77
2022/06/11 05:20:11;;;;;;;;;27.67;27.67;22.90;74.10;;;;;;5076004;28;8758;-75
2022/06/11 05:22:38;;;;;;;;;43.33;37.67;23.60;71.40;;;;;;5076160;28;8754;-76
2022/06/11 05:25:05;;;;;;;;;25.33;25.33;23.60;70.00;;;;;;5076272;28;8769;-76
2022/06/11 05:27:31;;;;;;;;;38.00;33.33;23.80;69.60;;;;;;5058393;28;8793;-76
2022/06/11 05:30:01;;;;;;;;;31.67;31.67;23.80;69.20;;;;;;5074743;28;8762;-76
2022/06/11 05:32:32;;;;;;;;;24.67;24.67;23.60;70.70;;;;;;5075882;28;8801;-76
2022/06/11 05:35:00;;;;;;;;;26.00;26.00;23.90;69.60;;;;;;5075911;28;8750;-78
2022/06/11 05:37:27;;;;;;;;;25.00;25.00;24.10;68.60;;;;;;5083311;28;8798;-75
2022/06/11 05:39:53;;;;;;;;;25.67;25.67;24.20;67.20;;;;;;5089033;28;8790;-76
2022/06/11 05:42:22;;;;;;;;;24.00;24.00;24.60;65.40;;;;;;5080037;28;8817;-76
2022/06/11 05:44:48;;;;;;;;;23.00;23.00;24.80;64.40;;;;;;5075481;28;8766;-76
2022/06/11 05:47:17;;;;;;;;;19.33;19.33;24.90;63.20;;;;;;5077642;28;8775;-75
2022/06/11 05:49:46;;;;;;;;;24.00;24.00;25.00;62.70;;;;;;5082992;28;8918;-76
2022/06/11 05:52:18;;;;;;;;;25.00;25.00;24.70;62.60;;;;;;5080548;28;8803;-78
2022/06/11 05:54:46;;;;;;;;;24.00;24.00;24.70;63.40;;;;;;5080443;28;8784;-77
2022/06/11 05:57:15;;;;;;;;;26.33;26.33;24.90;63.50;;;;;;5084361;28;9396;-76
2022/06/11 05:59:52;;;;;;;;;25.67;25.67;24.70;63.30;;;;;;5075916;28;8778;-76
2022/06/11 06:02:21;;;;;;;;;26.00;26.00;24.20;65.80;;;;;;5083017;28;8861;-76
2022/06/11 06:04:46;;;;;;;;;25.33;25.33;24.00;67.10;;;;;;5083741;28;8798;-77
2022/06/11 06:07:12;;;;;;;;;25.33;25.33;23.50;68.60;;;;;;5077557;28;8835;-76
2022/06/11 06:09:38;;;;;;;;;27.67;27.67;23.70;68.10;;;;;;5076180;28;8807;-77
2022/06/11 06:12:06;;;;;;;;;25.67;25.67;23.90;67.80;;;;;;5085686;28;8782;-78
2022/06/11 06:14:32;;;;;;;;;23.00;23.00;23.60;68.70;;;;;;5075194;28;8749;-78
2022/06/11 06:16:58;;;;;;;;;27.00;27.00;24.10;67.30;;;;;;5080784;28;8788;-77
2022/06/11 06:19:24;;;;;;;;;25.33;25.33;24.10;66.20;;;;;;5094776;28;8765;-76
2022/06/11 06:21:50;;;;;;;;;24.00;24.00;24.40;65.30;;;;;;5091570;28;8828;-76
2022/06/11 06:24:16;;;;;;;;;29.00;29.00;24.70;64.70;;;;;;5083636;28;9219;-76
2022/06/11 06:26:42;;;;;;;;;27.67;27.67;24.80;63.10;;;;;;5074729;28;8766;-76
2022/06/11 06:29:08;;;;;;;;;25.67;25.67;24.90;63.60;;;;;;5074671;28;8770;-76
2022/06/11 06:31:35;;;;;;;;;24.33;23.00;25.00;62.60;;;;;;5077385;28;8783;-78
2022/06/11 06:34:01;;;;;;;;;26.33;26.33;25.30;62.70;;;;;;5083681;28;8790;-76
2022/06/11 06:36:29;;;;;;;;;25.00;25.00;25.80;61.30;;;;;;5085972;28;8880;-76
2022/06/11 06:38:55;;;;;;;;;25.33;25.33;25.70;59.80;;;;;;5079744;28;8764;-76
2022/06/11 06:41:22;;;;;;;;;26.00;26.00;26.10;59.80;;;;;;5076991;28;8834;-73
2022/06/11 06:43:51;;;;;;;;;23.67;23.67;26.40;58.20;;;;;;5078748;28;8768;-76
2022/06/11 06:46:18;;;;;;;;;23.33;23.33;26.50;56.90;;;;;;5083695;28;8829;-75
2022/06/11 06:48:45;;;;;;;;;24.67;24.67;26.60;56.50;;;;;;5074752;28;8769;-75
2022/06/11 06:51:12;;;;;;;;;21.33;21.33;26.60;56.10;;;;;;5086657;28;8860;-75
2022/06/11 06:53:39;;;;;;;;;25.33;25.33;26.80;55.60;;;;;;5080629;28;8778;-74
2022/06/11 06:56:06;;;;;;;;;21.67;21.67;26.70;55.00;;;;;;5087473;28;8794;-75
2022/06/11 06:58:33;;;;;;;;;23.67;23.67;26.50;55.00;;;;;;5078939;28;8851;-74
2022/06/11 07:00:59;;;;;;;;;24.00;24.00;26.40;56.10;;;;;;5081975;28;8813;-74
2022/06/11 07:03:25;;;;;;;;;20.33;20.33;26.60;55.60;;;;;;5094457;28;8740;-75
2022/06/11 07:05:51;;;;;;;;;17.67;17.67;26.70;55.70;;;;;;5086413;28;8831;-74
2022/06/11 07:08:18;;;;;;;;;24.00;24.00;26.80;55.10;;;;;;5079393;28;9412;-75
2022/06/11 07:10:52;;;;;;;;;25.00;25.00;27.00;54.80;;;;;;5083297;28;8851;-74
2022/06/11 07:13:19;;;;;;;;;27.33;27.33;26.90;54.10;;;;;;5074338;28;8761;-75
2022/06/11 07:15:48;;;;;;;;;27.00;27.00;27.10;54.40;;;;;;5086693;28;8744;-79
2022/06/11 07:18:17;;;;;;;;;19.67;19.67;27.40;53.80;;;;;;5094206;28;8807;-82
2022/06/11 07:20:46;;;;;;;;;24.67;24.67;27.30;52.70;;;;;;5094093;28;8910;-75
2022/06/11 07:23:24;;;;;;;;;24.67;24.67;27.30;52.20;;;;;;5094214;28;8844;-76
2022/06/11 07:25:54;;;;;;;;;22.33;22.33;27.30;52.20;;;;;;5094204;28;8879;-74
2022/06/11 07:28:29;;;;;;;;;27.67;27.67;27.30;52.50;;;;;;5094239;28;8784;-71
2022/06/11 07:30:55;;;;;;;;;28.00;27.00;27.30;52.10;;;;;;5094219;28;8777;-72
2022/06/11 07:33:23;;;;;;;;;24.00;24.00;27.40;51.90;;;;;;5089872;28;8758;-71
2022/06/11 07:35:50;;;;;;;;;24.67;24.67;27.40;51.70;;;;;;5082381;28;8851;-72
2022/06/11 07:38:18;;;;;;;;;24.33;24.33;27.00;53.10;;;;;;5093384;28;8805;-73
2022/06/11 07:40:44;;;;;;;;;26.00;26.00;27.10;53.10;;;;;;5094370;28;9463;-72
2022/06/11 07:43:10;;;;;;;;;32.00;31.33;27.20;53.30;;;;;;5094049;28;8848;-71
2022/06/11 07:45:39;;;;;;;;;24.67;24.67;27.30;53.10;;;;;;5093988;28;8779;-71
2022/06/11 07:48:06;;;;;;;;;27.33;27.33;27.30;53.20;;;;;;5094121;28;8779;-73
2022/06/11 07:50:39;;;;;;;;;27.00;27.00;27.50;52.90;;;;;;5094044;28;8776;-73
2022/06/11 07:53:06;;;;;;;;;28.00;28.00;27.20;53.10;;;;;;5085600;28;8776;-72
2022/06/11 07:55:33;;;;;;;;;26.67;26.67;27.10;53.80;;;;;;5082709;28;8778;-73
2022/06/11 07:57:59;;;;;;;;;25.00;25.00;27.20;54.00;;;;;;5080155;28;8917;-71
2022/06/11 08:00:28;;;;;;;;;26.33;26.33;27.10;53.80;;;;;;5094254;28;8872;-70
2022/06/11 08:02:54;;;;;;;;;26.00;26.00;27.00;54.40;;;;;;5088270;28;8770;-71
2022/06/11 08:05:21;;;;;;;;;28.33;28.33;27.20;54.80;;;;;;5086577;28;8850;-72
2022/06/11 08:07:48;;;;;;;;;26.00;26.00;27.00;54.50;;;;;;5087488;28;8788;-70
2022/06/11 08:10:14;;;;;;;;;22.67;22.67;27.00;55.10;;;;;;5083058;28;8786;-71
2022/06/11 08:12:40;;;;;;;;;27.33;27.33;27.00;54.00;;;;;;5084667;28;8770;-73
2022/06/11 08:15:08;;;;;;;;;26.33;26.33;26.70;55.30;;;;;;5087294;28;8831;-72
2022/06/11 08:17:35;;;;;;;;;29.00;29.00;26.50;55.80;;;;;;5079729;28;8807;-71
2022/06/11 08:20:02;;;;;;;;;26.33;26.33;26.50;56.00;;;;;;5089969;28;8870;-71
2022/06/11 08:22:28;;;;;;;;;23.33;23.33;26.40;56.10;;;;;;5097382;28;8801;-71
2022/06/11 08:24:54;;;;;;;;;29.67;29.67;26.30;56.80;;;;;;5095930;28;9490;-68
2022/06/11 08:27:19;;;;;;;;;32.33;31.67;26.60;56.40;;;;;;5078372;28;8907;-72
2022/06/11 08:29:45;;;;;;;;;25.67;25.67;27.00;55.90;;;;;;5077634;28;8774;-73
2022/06/11 08:32:11;;;;;;;;;27.67;27.67;27.10;55.40;;;;;;5097913;28;8791;-74
2022/06/11 08:34:38;;;;;;;;;30.33;30.33;27.30;54.80;;;;;;5083877;28;8806;-74
2022/06/11 08:37:05;;;;;;;;;27.67;27.67;27.60;54.50;;;;;;5090032;28;8882;-77
2022/06/11 08:39:31;;;;;;;;;29.00;29.00;27.90;53.60;;;;;;5078086;28;8825;-72
2022/06/11 08:41:59;;;;;;;;;27.33;26.33;27.70;52.40;;;;;;5076145;28;8830;-71
2022/06/11 08:44:26;;;;;;;;;27.67;27.67;27.20;53.90;;;;;;5077102;28;8855;-71
2022/06/11 08:46:55;;;;;;;;;31.33;30.67;26.60;55.80;;;;;;5076525;28;8888;-73
2022/06/11 08:49:44;;;;;;;;;28.67;28.67;26.90;56.00;;;;;;5076826;28;8927;-74
2022/06/11 08:52:24;;;;;;;;;32.33;31.33;27.00;55.40;;;;;;5076541;28;8868;-73
2022/06/11 08:54:50;;;;;;;;;30.00;30.00;27.40;55.20;;;;;;5076500;28;8912;-72
2022/06/11 08:57:21;;;;;;;;;29.33;29.33;27.40;54.40;;;;;;5078010;28;8826;-74
2022/06/11 08:59:57;;;;;;;;;28.33;28.33;27.10;55.80;;;;;;5076290;28;8823;-74
2022/06/11 09:02:35;;;;;;;;;29.00;29.00;27.20;56.10;;;;;;5076171;28;8789;-73
2022/06/11 09:05:27;;;;;;;;;28.00;28.00;27.70;55.20;;;;;;5058231;28;8793;-73
2022/06/11 09:08:18;;;;;;;;;24.67;24.67;28.40;53.10;;;;;;5076251;28;8782;-73
2022/06/11 09:10:54;;;;;;;;;27.33;27.33;27.70;52.70;;;;;;5045381;28;8762;-72
2022/06/11 09:13:55;;;;;;;;;26.33;26.33;27.00;55.40;;;;;;5076054;28;8801;-73
2022/06/11 09:16:39;;;;;;;;;26.00;26.00;27.70;55.10;;;;;;5076391;28;8758;-72
2022/06/11 09:19:11;;;;;;;;;27.33;27.33;28.30;52.80;;;;;;5076420;28;8774;-72
2022/06/11 09:21:46;;;;;;;;;27.00;27.00;29.00;51.50;;;;;;5075892;28;8832;-72
2022/06/11 09:24:25;;;;;;;;;25.00;25.00;29.30;50.70;;;;;;5075842;28;11463;-72
2022/06/11 09:27:22;;;;;;;;;30.67;30.00;29.20;50.20;;;;;;5076071;28;8886;-72
2022/06/11 09:30:00;;;;;;;;;27.00;27.00;29.50;49.50;;;;;;5071389;28;8770;-72
2022/06/11 09:32:30;;;;;;;;;26.67;26.67;29.60;49.90;;;;;;5075916;28;9179;-73
2022/06/11 09:35:20;;;;;;;;;25.00;25.00;30.00;49.00;;;;;;5075803;28;8801;-72
2022/06/11 09:37:55;;;;;;;;;25.67;25.67;29.80;47.70;;;;;;5075785;28;8762;-76
2022/06/11 09:40:39;;;;;;;;;24.33;24.33;29.90;48.70;;;;;;5075512;28;11448;-74
2022/06/11 09:43:39;;;;;;;;;27.33;27.33;29.70;47.60;;;;;;5075718;28;11449;-74
2022/06/11 09:46:11;;;;;;;;;26.00;26.00;28.60;48.90;;;;;;5075603;28;8758;-75
2022/06/11 09:48:48;;;;;;;;;27.33;27.33;28.70;51.00;;;;;;5075519;28;8786;-75
2022/06/11 09:51:31;;;;;;;;;24.00;24.00;29.10;49.90;;;;;;5075891;28;8766;-74
2022/06/11 09:54:15;;;;;;;;;22.67;22.67;29.20;49.40;;;;;;5075514;28;8778;-75
2022/06/11 09:56:59;;;;;;;;;25.00;25.00;29.10;48.70;;;;;;5075379;28;8807;-75
2022/06/11 09:59:32;;;;;;;;;24.67;24.67;29.80;48.30;;;;;;5075247;28;8831;-71
2022/06/11 10:05:25;;;;;;;;;23.00;23.00;30.20;46.20;;;;;;5033137;28;11663;-72
2022/06/11 10:08:07;;;;;;;;;30.33;30.00;30.10;46.80;;;;;;5070710;28;8778;-70
2022/06/11 10:10:39;;;;;;;;;25.33;25.33;29.40;46.00;;;;;;5075296;28;9550;-73
2022/06/11 10:13:20;;;;;;;;;25.33;25.33;29.10;48.00;;;;;;5075225;28;8750;-72
2022/06/11 10:15:48;;;;;;;;;25.33;25.33;29.50;47.50;;;;;;5074336;28;8770;-72
2022/06/11 10:18:36;;;;;;;;;26.33;26.33;29.60;48.40;;;;;;5074802;28;8829;-73
2022/06/11 10:21:12;;;;;;;;;25.33;25.33;30.20;46.80;;;;;;5074640;28;8883;-69
2022/06/11 10:23:42;;;;;;;;;21.67;21.67;30.30;45.90;;;;;;5074893;28;8773;-68
2022/06/11 10:26:18;;;;;;;;;24.00;23.00;30.30;46.80;;;;;;5074847;28;11495;-68
2022/06/11 10:29:04;;;;;;;;;22.67;22.67;30.50;46.20;;;;;;5074741;28;11457;-74
2022/06/11 10:32:08;;;;;;;;;23.67;23.67;30.80;45.60;;;;;;5088549;28;11449;-73
2022/06/11 10:34:37;;;;;;;;;27.00;26.67;31.30;45.20;;;;;;5082836;28;11488;-73
2022/06/11 10:37:27;;;;;;;;;26.00;26.00;31.60;44.00;;;;;;5076207;28;11491;-74
2022/06/11 10:40:16;;;;;;;;;24.67;24.67;32.20;43.50;;;;;;5093638;28;11477;-72
2022/06/11 10:42:49;;;;;;;;;24.00;24.00;31.30;43.40;;;;;;5092709;28;12312;-74
2022/06/11 10:45:16;;;;;;;;;22.00;22.00;30.60;44.20;;;;;;5091581;28;8771;-74
2022/06/11 10:47:52;;;;;;;;;21.33;21.33;30.50;45.40;;;;;;5093182;28;11466;-73
2022/06/11 10:50:20;;;;;;;;;24.00;24.00;31.00;44.70;;;;;;5092375;28;11442;-74
2022/06/11 10:52:58;;;;;;;;;21.33;21.33;31.20;43.90;;;;;;5093216;28;11427;-72
2022/06/11 10:55:44;;;;;;;;;20.67;20.67;31.80;43.40;;;;;;5093104;28;11527;-72
2022/06/11 10:58:20;;;;;;;;;21.67;21.67;31.70;43.50;;;;;;5090763;28;11481;-73
2022/06/11 11:00:55;;;;;;;;;20.33;20.33;32.10;42.40;;;;;;5093224;28;11567;-72
2022/06/11 11:03:30;;;;;;;;;19.67;19.67;32.30;41.60;;;;;;5093181;28;11454;-71
2022/06/11 11:06:03;;;;;;;;;22.00;22.00;31.40;42.00;;;;;;5091191;28;11560;-72
2022/06/11 11:08:29;;;;;;;;;26.00;26.00;31.10;43.60;;;;;;5090435;28;11436;-73
2022/06/11 11:10:58;;;;;;;;;23.00;23.00;31.70;43.00;;;;;;5093475;28;11452;-72
2022/06/11 11:13:39;;;;;;;;;22.33;22.33;31.80;41.30;;;;;;5093057;28;11434;-72
2022/06/11 11:16:15;;;;;;;;;20.67;20.67;31.60;41.90;;;;;;5092982;28;11457;-71
2022/06/11 11:19:06;;;;;;;;;22.25;22.25;32.00;41.80;;;;;;5092580;28;11547;-70
2022/06/11 11:21:33;;;;;;;;;19.00;19.00;31.40;42.30;;;;;;5090438;28;11494;-70
2022/06/11 11:24:15;;;;;;;;;19.33;19.33;31.40;42.70;;;;;;5092686;28;11459;-70
2022/06/11 11:27:04;;;;;;;;;19.67;19.67;31.90;42.40;;;;;;5076712;28;11610;-71
2022/06/11 11:29:38;;;;;;;;;19.00;19.00;32.40;41.10;;;;;;5053345;28;11456;-73
2022/06/11 11:32:30;;;;;;;;;21.33;21.33;32.70;41.30;;;;;;5097302;28;11532;-71
2022/06/11 11:34:56;;;;;;;;;20.33;20.33;32.50;40.50;;;;;;5095238;28;11443;-71
2022/06/11 11:37:32;;;;;;;;;18.67;18.67;32.50;40.50;;;;;;5096879;28;11431;-71
2022/06/11 11:40:02;;;;;;;;;20.00;20.00;32.70;40.10;;;;;;5095415;28;12128;-72
2022/06/11 11:42:39;;;;;;;;;27.00;27.00;32.40;40.10;;;;;;5096758;28;12096;-71
2022/06/11 11:45:44;;;;;;;;;17.25;17.25;32.10;40.80;;;;;;5078728;28;8791;-71
2022/06/11 11:48:34;;;;;;;;;22.00;22.00;32.90;40.60;;;;;;5094045;28;11437;-74
2022/06/11 11:51:11;;;;;;;;;23.00;23.00;32.70;39.20;;;;;;5083759;28;12166;-71
2022/06/11 11:53:49;;;;;;;;;21.00;21.00;32.50;41.10;;;;;;5094907;28;11431;-72
2022/06/11 11:56:39;;;;;;;;;21.25;21.25;32.60;40.60;;;;;;5094750;28;11504;-71
2022/06/11 11:59:25;;;;;;;;;18.67;18.67;32.50;40.30;;;;;;5095965;28;11548;-71
2022/06/11 12:01:55;;;;;;;;;22.25;22.25;33.20;38.70;;;;;;5093704;28;11576;-72
2022/06/11 12:04:27;;;;;;;;;21.67;21.67;33.90;38.70;;;;;;5096919;28;12108;-72
2022/06/11 12:07:04;;;;;;;;;20.50;20.50;33.50;38.80;;;;;;5097602;28;11435;-72
2022/06/11 12:09:45;;;;;;;;;21.33;21.33;32.80;38.30;;;;;;5097593;28;11498;-73
2022/06/11 12:12:18;;;;;;;;;24.00;24.00;33.30;38.80;;;;;;5097592;28;11432;-72
2022/06/11 12:14:55;;;;;;;;;23.00;23.00;33.30;38.70;;;;;;5097492;28;11429;-73
2022/06/11 12:17:24;;;;;;;;;21.00;21.00;33.40;38.80;;;;;;5097085;28;11512;-72
2022/06/11 12:19:56;;;;;;;;;21.00;21.00;33.70;38.20;;;;;;5097419;28;12085;-73
2022/06/11 12:22:32;;;;;;;;;20.00;20.00;32.90;38.00;;;;;;5097270;28;11456;-73
2022/06/11 12:25:00;;;;;;;;;23.00;23.00;33.00;38.10;;;;;;5097308;28;11458;-72
2022/06/11 12:27:39;;;;;;;;;19.67;19.67;32.70;39.70;;;;;;5097097;28;11476;-72
2022/06/11 12:30:25;;;;;;;;;22.00;22.00;32.90;39.60;;;;;;5097291;28;11484;-71
2022/06/11 12:32:52;;;;;;;;;24.00;24.00;32.90;40.20;;;;;;5097303;28;12112;-72
2022/06/11 12:35:29;;;;;;;;;21.33;21.33;32.60;39.60;;;;;;5097074;28;11458;-72
2022/06/11 12:37:55;;;;;;;;;24.33;24.33;32.40;40.40;;;;;;5096841;28;11460;-72
2022/06/11 12:40:24;;;;;;;;;18.00;18.00;33.00;40.30;;;;;;5096292;28;11438;-72
2022/06/11 12:42:52;;;;;;;;;19.00;19.00;33.90;39.00;;;;;;5097263;28;8802;-72
2022/06/11 12:45:18;;;;;;;;;18.50;18.50;34.40;37.70;;;;;;5097047;28;11454;-72
2022/06/11 12:48:04;;;;;;;;;18.00;18.00;34.80;37.00;;;;;;5096816;28;11422;-72
2022/06/11 12:50:53;;;;;;;;;16.25;16.25;34.00;36.80;;;;;;5096887;28;12150;-72
2022/06/11 12:53:40;;;;;;;;;21.75;21.75;32.80;39.60;;;;;;5088509;28;11541;-72
2022/06/11 12:56:15;;;;;;;;;23.00;23.00;32.60;38.90;;;;;;5096760;28;11464;-73
2022/06/11 12:59:04;;;;;;;;;19.00;19.00;32.90;40.00;;;;;;5096889;28;11481;-76
2022/06/11 13:01:54;;;;;;;;;19.33;19.33;32.80;38.90;;;;;;5103387;28;11518;-73
2022/06/11 13:04:43;;;;;;;;;20.33;20.33;32.70;39.50;;;;;;5098096;28;11575;-72